Time;durP1;ratioP1;P1;durP2;ratioP2;P2;SDS_P1;SDS_P2;PMS_P1;PMS_P2;Temp;Humidity;BMP_temperature;BMP_pressure;BME280_temperature;BME280_humidity;BME280_pressure;Samples;Min_cycle;Max_cycle;Signal;HPM_P1;HPM_P2
2020/12/19 00:00:08;;;;;;;25.40;13.72;;;;;;;3.63;69.91;101604.59;1801832;79;21575;-55
2020/12/19 00:02:35;;;;;;;19.87;11.90;;;;;;;3.64;69.92;101605.00;1802757;77;21761;-55
2020/12/19 00:05:05;;;;;;;21.02;11.80;;;;;;;3.72;69.77;101608.22;1801312;77;22666;-55
2020/12/19 00:07:33;;;;;;;19.87;11.35;;;;;;;3.78;69.71;101609.77;1796345;79;21406;-55
2020/12/19 00:10:01;;;;;;;20.12;11.35;;;;;;;3.81;69.68;101610.52;1754134;80;21147;-55
2020/12/19 00:12:29;;;;;;;24.07;13.15;;;;;;;3.79;69.72;101609.72;1769144;80;21140;-55
2020/12/19 00:14:56;;;;;;;25.88;14.40;;;;;;;3.77;69.75;101614.13;1749325;80;21677;-55
2020/12/19 00:17:25;;;;;;;23.27;12.20;;;;;;;3.74;69.80;101615.52;1759661;80;21932;-55
2020/12/19 00:19:52;;;;;;;24.82;11.40;;;;;;;3.68;69.84;101611.80;1770314;79;21207;-55
2020/12/19 00:22:21;;;;;;;23.77;13.05;;;;;;;3.61;69.98;101605.94;1751242;81;21213;-55
2020/12/19 00:24:49;;;;;;;24.05;14.70;;;;;;;3.58;70.10;101609.09;1769931;80;21135;-55
2020/12/19 00:27:16;;;;;;;20.97;12.70;;;;;;;3.56;70.18;101610.89;1760442;80;21170;-55
2020/12/19 00:29:45;;;;;;;20.37;12.73;;;;;;;3.57;70.20;101610.84;1774231;80;21200;-55
2020/12/19 00:32:12;;;;;;;24.65;13.20;;;;;;;3.65;70.03;101609.32;1783585;79;21623;-55
2020/12/19 00:34:41;;;;;;;23.10;13.45;;;;;;;3.70;69.91;101609.56;1750904;81;21198;-55
2020/12/19 00:37:09;;;;;;;20.95;12.30;;;;;;;3.70;69.93;101610.03;1765493;80;21192;-54
2020/12/19 00:39:36;;;;;;;23.22;13.30;;;;;;;3.71;70.06;101615.61;1757013;80;21166;-54
2020/12/19 00:42:04;;;;;;;18.92;13.53;;;;;;;3.70;70.11;101617.38;1764109;80;23041;-54
2020/12/19 00:44:31;;;;;;;28.98;16.10;;;;;;;3.68;70.14;101613.10;1767258;80;21220;-55
2020/12/19 00:46:59;;;;;;;22.25;13.55;;;;;;;3.62;70.24;101615.92;1774819;79;21594;-55
2020/12/19 00:49:26;;;;;;;25.00;13.58;;;;;;;3.56;70.47;101609.59;1771880;79;22174;-55
2020/12/19 00:51:53;;;;;;;27.15;14.25;;;;;;;3.51;70.61;101610.60;1753405;80;21167;-55
2020/12/19 00:54:21;;;;;;;27.95;14.35;;;;;;;3.54;70.68;101616.14;1759577;80;21373;-55
2020/12/19 00:56:51;;;;;;;24.10;14.53;;;;;;;3.62;70.51;101614.62;1766118;80;21623;-55
2020/12/19 00:59:19;;;;;;;25.08;14.87;;;;;;;3.68;70.39;101619.18;1776537;80;21215;-55
2020/12/19 01:01:46;;;;;;;26.23;13.80;;;;;;;3.69;70.41;101614.36;1783840;79;21111;-55
2020/12/19 01:04:14;;;;;;;25.62;13.93;;;;;;;3.67;70.50;101618.77;1774923;79;21112;-55
2020/12/19 01:06:43;;;;;;;26.75;13.72;;;;;;;3.61;70.64;101614.20;1778936;79;21462;-55
2020/12/19 01:09:10;;;;;;;30.15;15.80;;;;;;;3.51;70.84;101614.50;1760062;81;22149;-55
2020/12/19 01:11:38;;;;;;;27.13;13.75;;;;;;;3.47;70.98;101605.53;1770754;80;21547;-55
2020/12/19 01:14:05;;;;;;;27.42;14.28;;;;;;;3.44;71.11;101610.83;1775312;80;21164;-55
2020/12/19 01:16:33;;;;;;;27.93;14.87;;;;;;;3.40;71.21;101610.53;1758422;81;21166;-55
2020/12/19 01:19:04;;;;;;;23.65;13.05;;;;;;;3.39;71.23;101597.95;1768445;80;21215;-55
2020/12/19 01:21:32;;;;;;;22.58;12.58;;;;;;;3.48;71.09;101614.59;1771111;79;21198;-55
2020/12/19 01:24:05;;;;;;;26.00;12.18;;;;;;;3.54;70.99;101606.58;1780672;80;21215;-55
2020/12/19 01:26:32;;;;;;;24.32;12.30;;;;;;;3.57;70.98;101610.84;1761712;81;21198;-55
2020/12/19 01:29:00;;;;;;;26.27;14.65;;;;;;;3.51;71.10;101609.30;1782913;80;21120;-56
2020/12/19 01:31:28;;;;;;;22.27;13.30;;;;;;;3.48;71.23;101610.69;1759354;80;21372;-55
2020/12/19 01:33:56;;;;;;;22.80;12.47;;;;;;;3.45;71.33;101613.37;1773598;80;21164;-55
2020/12/19 01:36:23;;;;;;;19.73;12.93;;;;;;;3.39;71.44;101612.25;1780741;79;21151;-55
2020/12/19 01:38:51;;;;;;;28.87;14.70;;;;;;;3.31;71.59;101614.23;1775996;79;21152;-55
2020/12/19 01:41:21;;;;;;;25.20;13.20;;;;;;;3.29;71.73;101611.67;1762377;80;21137;-55
2020/12/19 01:43:57;;;;;;;23.55;12.85;;;;;;;3.39;71.59;101611.41;1777460;80;22109;-55
2020/12/19 01:46:55;;;;;;;24.47;13.93;;;;;;;3.44;71.46;101616.87;1778446;80;21198;-55
2020/12/19 01:49:25;;;;;;;25.88;12.90;;;;;;;3.44;71.51;101619.47;1763576;80;21592;-55
2020/12/19 01:51:56;;;;;;;23.07;13.68;;;;;;;3.39;71.73;101618.77;1775943;80;21178;-55
2020/12/19 01:54:23;;;;;;;26.55;13.40;;;;;;;3.41;71.85;101618.72;1768758;80;21580;-55
2020/12/19 01:56:56;;;;;;;25.72;12.80;;;;;;;3.43;71.79;101615.61;1779476;80;21183;-54
2020/12/19 01:59:25;;;;;;;23.87;12.70;;;;;;;3.38;71.77;101617.08;1786060;80;21647;-55
2020/12/19 02:01:59;;;;;;;29.40;12.98;;;;;;;3.30;71.92;101621.20;1783734;80;21188;-55
2020/12/19 02:04:27;;;;;;;23.65;14.05;;;;;;;3.32;71.98;101615.95;1770905;80;21309;-54
2020/12/19 02:06:56;;;;;;;24.27;12.07;;;;;;;3.42;71.80;101612.17;1769734;80;21167;-54
2020/12/19 02:09:27;;;;;;;29.37;13.32;;;;;;;3.48;71.71;101616.33;1774887;80;21187;-55
2020/12/19 02:11:55;;;;;;;23.85;13.60;;;;;;;3.47;71.68;101615.48;1755552;80;21630;-54
2020/12/19 02:14:23;;;;;;;25.00;12.30;;;;;;;3.42;71.81;101617.38;1767259;80;21109;-54
2020/12/19 02:17:09;;;;;;;28.30;13.80;;;;;;;3.35;72.02;101617.16;1778397;79;21208;-54
2020/12/19 02:19:39;;;;;;;23.98;14.40;;;;;;;3.29;72.19;101614.73;1759797;80;21586;-58
2020/12/19 02:22:07;;;;;;;28.07;12.98;;;;;;;3.20;72.41;101618.92;1773136;79;22084;-54
2020/12/19 02:24:35;;;;;;;25.15;12.75;;;;;;;3.15;72.58;101618.59;1779551;80;21159;-54
2020/12/19 02:27:03;;;;;;;26.10;14.58;;;;;;;3.16;72.65;101616.84;1791307;79;21151;-54
2020/12/19 02:29:31;;;;;;;21.68;12.98;;;;;;;3.23;72.54;101609.28;1788589;79;21195;-54
2020/12/19 02:32:01;;;;;;;24.37;12.30;;;;;;;3.32;72.45;101615.49;1788315;79;21183;-54
2020/12/19 02:34:28;;;;;;;21.95;12.30;;;;;;;3.37;72.38;101612.76;1787350;79;22264;-54
2020/12/19 02:36:55;;;;;;;22.48;12.65;;;;;;;3.38;72.39;101611.00;1792551;79;21147;-54
2020/12/19 02:39:23;;;;;;;23.02;12.98;;;;;;;3.38;72.39;101611.00;1781257;79;21111;-54
2020/12/19 02:41:51;;;;;;;26.42;13.68;;;;;;;3.38;72.41;101611.88;1787631;79;22065;-54
2020/12/19 02:44:19;;;;;;;27.98;13.50;;;;;;;3.35;72.33;101610.20;1786679;80;21731;-54
2020/12/19 02:46:48;;;;;;;26.35;12.37;;;;;;;3.30;72.40;101614.69;1778972;78;22136;-55
2020/12/19 02:49:16;;;;;;;23.35;12.65;;;;;;;3.28;72.41;101613.05;1775478;80;21186;-55
2020/12/19 02:51:43;;;;;;;25.23;12.90;;;;;;;3.36;72.26;101616.25;1822093;78;21100;-55
2020/12/19 02:54:11;;;;;;;24.95;13.25;;;;;;;3.43;72.09;101612.58;1784495;80;21191;-55
2020/12/19 02:56:38;;;;;;;22.87;11.83;;;;;;;3.48;72.04;101625.00;1788889;79;21179;-55
2020/12/19 02:59:05;;;;;;;26.20;13.38;;;;;;;3.47;72.08;101619.38;1791369;79;23615;-55
2020/12/19 03:01:33;;;;;;;25.08;13.08;;;;;;;3.46;72.02;101622.03;1800124;79;21229;-56
2020/12/19 03:04:01;;;;;;;19.50;11.38;;;;;;;3.45;72.10;101626.39;1789251;80;21123;-55
2020/12/19 03:06:30;;;;;;;25.82;12.75;;;;;;;3.45;72.12;101621.64;1818971;78;21151;-56
2020/12/19 03:08:58;;;;;;;26.97;13.70;;;;;;;3.44;72.09;101626.44;1785508;79;21138;-55
2020/12/19 03:11:26;;;;;;;25.85;11.97;;;;;;;3.41;72.10;101623.92;1783346;78;21988;-55
2020/12/19 03:13:53;;;;;;;19.92;12.75;;;;;;;3.44;72.00;101624.67;1772965;79;21646;-55
2020/12/19 03:16:22;;;;;;;22.00;12.25;;;;;;;3.54;71.78;101625.25;1785896;79;21104;-56
2020/12/19 03:18:50;;;;;;;22.42;12.43;;;;;;;3.59;71.60;101622.05;1810390;78;21209;-55
2020/12/19 03:21:18;;;;;;;23.55;12.23;;;;;;;3.61;71.58;101618.95;1817696;78;21143;-56
2020/12/19 03:23:46;;;;;;;23.25;13.18;;;;;;;3.60;71.61;101611.19;1827109;78;21606;-54
2020/12/19 03:26:14;;;;;;;25.85;13.35;;;;;;;3.55;71.67;101611.35;1794789;79;21984;-54
2020/12/19 03:28:42;;;;;;;25.55;13.15;;;;;;;3.50;71.71;101611.48;1793865;78;21199;-54
2020/12/19 03:31:09;;;;;;;24.95;13.85;;;;;;;3.47;71.80;101618.08;1798073;78;21998;-54
2020/12/19 03:33:37;;;;;;;20.43;11.75;;;;;;;3.43;71.85;101616.48;1789367;79;21662;-54
2020/12/19 03:36:04;;;;;;;20.92;12.07;;;;;;;3.38;71.93;101622.28;1825979;78;21196;-54
2020/12/19 03:38:32;;;;;;;22.77;13.50;;;;;;;3.37;71.99;101617.97;1788170;79;21606;-55
2020/12/19 03:41:00;;;;;;;30.48;14.13;;;;;;;3.46;71.84;101615.09;1825757;78;21183;-54
2020/12/19 03:43:27;;;;;;;21.05;12.28;;;;;;;3.52;71.75;101621.39;1802158;78;21212;-54
2020/12/19 03:45:55;;;;;;;21.00;11.95;;;;;;;3.57;71.74;101612.16;1794759;78;21214;-55
2020/12/19 03:48:22;;;;;;;25.20;14.13;;;;;;;3.58;71.74;101611.69;1797066;79;21331;-54
2020/12/19 03:50:50;;;;;;;23.90;12.55;;;;;;;3.55;71.77;101613.95;1783557;79;21308;-55
2020/12/19 03:53:17;;;;;;;26.30;13.45;;;;;;;3.56;71.77;101612.20;1826134;77;21543;-54
2020/12/19 03:55:46;;;;;;;25.68;12.45;;;;;;;3.51;71.87;101606.70;1786344;78;21222;-55
2020/12/19 03:58:14;;;;;;;26.50;11.95;;;;;;;3.49;71.85;101601.96;1791948;78;21083;-55
2020/12/19 04:00:42;;;;;;;25.25;14.07;;;;;;;3.45;71.89;101604.27;1823832;78;21541;-55
2020/12/19 04:03:09;;;;;;;22.58;12.47;;;;;;;3.47;71.86;101615.48;1786737;79;21136;-55
2020/12/19 04:05:38;;;;;;;21.80;13.55;;;;;;;3.59;71.71;101612.11;1791034;79;21111;-54
2020/12/19 04:08:05;;;;;;;23.42;12.20;;;;;;;3.70;71.51;101613.93;1817358;77;21447;-55
2020/12/19 04:10:34;;;;;;;19.27;10.80;;;;;;;3.70;71.33;101617.84;1797681;79;21172;-54
2020/12/19 04:13:01;;;;;;;25.15;15.18;;;;;;;3.66;71.41;101624.86;1788043;80;21267;-54
2020/12/19 04:15:29;;;;;;;26.42;13.90;;;;;;;3.60;71.58;101619.87;1793805;78;21695;-54
2020/12/19 04:17:56;;;;;;;20.23;12.60;;;;;;;3.56;71.71;101625.20;1791389;79;21207;-54
2020/12/19 04:20:25;;;;;;;21.23;14.03;;;;;;;3.50;71.79;101620.59;1795854;79;21173;-54
2020/12/19 04:22:53;;;;;;;22.30;12.65;;;;;;;3.48;71.95;101612.42;1797457;79;21143;-55
2020/12/19 04:25:20;;;;;;;25.97;12.60;;;;;;;3.48;71.95;101619.80;1788419;79;21207;-54
2020/12/19 04:27:48;;;;;;;22.67;12.35;;;;;;;3.50;71.89;101612.79;1794031;79;21203;-55
2020/12/19 04:30:16;;;;;;;25.32;12.98;;;;;;;3.58;71.68;101620.37;1792390;79;21132;-55
2020/12/19 04:32:43;;;;;;;24.52;12.43;;;;;;;3.65;71.62;101621.03;1784620;79;21605;-55
2020/12/19 04:35:11;;;;;;;28.30;12.30;;;;;;;3.71;71.58;101624.27;1797928;79;21164;-55
2020/12/19 04:37:39;;;;;;;22.15;12.70;;;;;;;3.75;71.44;101616.36;1799487;79;21340;-55
2020/12/19 04:40:07;;;;;;;26.12;12.60;;;;;;;3.71;71.41;101619.52;1789218;79;21202;-55
2020/12/19 04:42:35;;;;;;;25.00;14.43;;;;;;;3.64;71.53;101620.16;1819493;78;21112;-55
2020/12/19 04:45:04;;;;;;;36.63;20.88;;;;;;;3.62;71.60;101613.31;1803264;78;21630;-55
2020/12/19 04:47:32;;;;;;;34.23;19.52;;;;;;;3.59;71.68;101620.75;1788303;78;21605;-55
2020/12/19 04:49:59;;;;;;;31.25;17.15;;;;;;;3.52;71.72;101624.45;1819761;77;23530;-55
2020/12/19 04:52:32;;;;;;;26.17;14.13;;;;;;;3.50;71.79;101620.59;1794659;78;21128;-56
2020/12/19 04:54:59;;;;;;;27.13;13.98;;;;;;;3.62;71.62;101627.17;1784174;78;21598;-54
2020/12/19 04:57:27;;;;;;;24.55;14.83;;;;;;;3.70;71.42;101627.79;1784059;78;21534;-55
2020/12/19 04:59:54;;;;;;;23.57;14.80;;;;;;;3.72;71.37;101627.28;1785623;78;21159;-56
2020/12/19 05:02:22;;;;;;;23.27;13.75;;;;;;;3.70;71.45;101629.55;1773893;80;21747;-56
2020/12/19 05:04:50;;;;;;;26.27;14.70;;;;;;;3.68;71.54;101629.59;1789164;80;21180;-56
2020/12/19 05:07:19;;;;;;;22.62;14.33;;;;;;;3.67;71.52;101637.45;1779816;79;21215;-56
2020/12/19 05:09:47;;;;;;;28.62;16.15;;;;;;;3.66;71.59;101635.27;1782817;78;21615;-56
2020/12/19 05:12:14;;;;;;;30.35;18.42;;;;;;;3.64;71.65;101637.08;1800207;78;21144;-56
2020/12/19 05:14:42;;;;;;;29.57;17.20;;;;;;;3.63;71.72;101635.39;1803251;78;22573;-56
2020/12/19 05:17:09;;;;;;;26.10;17.55;;;;;;;3.65;71.64;101630.98;1819499;78;21196;-55
2020/12/19 05:19:37;;;;;;;25.97;15.08;;;;;;;3.77;71.43;101635.42;1814935;77;21176;-55
2020/12/19 05:22:05;;;;;;;20.97;11.20;;;;;;;3.85;71.27;101631.66;1808346;77;22914;-55
2020/12/19 05:24:36;;;;;;;21.02;11.48;;;;;;;3.91;71.13;101633.20;1817814;78;21160;-55
2020/12/19 05:27:04;;;;;;;24.07;11.60;;;;;;;3.84;71.23;101633.01;1813808;77;21365;-55
2020/12/19 05:29:34;;;;;;;30.10;13.68;;;;;;;3.78;71.32;101632.73;1779755;79;21168;-55
2020/12/19 05:32:01;;;;;;;20.80;11.18;;;;;;;3.72;71.47;101634.25;1770628;80;21524;-55
2020/12/19 05:34:28;;;;;;;19.82;11.73;;;;;;;3.65;71.61;101638.80;1784964;80;21123;-54
2020/12/19 05:36:56;;;;;;;20.20;11.57;;;;;;;3.58;71.82;101639.89;1783881;80;21667;-57
2020/12/19 05:39:23;;;;;;;24.32;13.35;;;;;;;3.50;71.98;101641.41;1786386;78;22655;-55
2020/12/19 05:41:51;;;;;;;19.67;13.08;;;;;;;3.50;72.05;101646.63;1787256;78;21661;-55
2020/12/19 05:44:22;;;;;;;20.55;11.00;;;;;;;3.56;72.03;101640.83;1800777;78;21214;-56
2020/12/19 05:49:17;;;;;;;27.37;11.90;;;;;;;3.68;72.09;101640.44;1872083;74;22098;-55
2020/12/19 05:51:45;;;;;;;24.98;12.03;;;;;;;3.66;72.10;101649.59;1779179;79;21143;-55
2020/12/19 05:54:15;;;;;;;20.25;12.45;;;;;;;3.63;72.18;101657.52;1794038;79;21300;-55
2020/12/19 05:56:44;;;;;;;24.07;13.08;;;;;;;3.61;72.23;101649.34;1791896;79;21796;-55
2020/12/19 05:59:15;;;;;;;22.27;11.97;;;;;;;3.59;72.20;101653.75;1788715;79;21151;-55
2020/12/19 06:01:47;;;;;;;22.80;13.15;;;;;;;3.51;72.31;101653.55;1780006;79;21599;-55
2020/12/19 06:04:16;;;;;;;25.10;12.78;;;;;;;3.45;72.39;101652.88;1786889;79;21238;-54
2020/12/19 06:06:46;;;;;;;19.62;10.75;;;;;;;3.47;72.37;101659.72;1788948;79;22310;-59
2020/12/19 06:09:14;;;;;;;24.77;12.90;;;;;;;3.60;72.13;101658.91;1790201;79;21492;-57
2020/12/19 06:12:04;;;;;;;22.35;12.95;;;;;;;3.68;71.92;101662.13;1794550;79;21238;-58
2020/12/19 06:14:36;;;;;;;23.35;11.78;;;;;;;3.68;71.84;101659.96;1783321;79;21210;-55
2020/12/19 06:17:16;;;;;;;24.10;13.03;;;;;;;3.66;71.97;101678.69;1789925;79;21650;-56
2020/12/19 06:19:43;;;;;;;21.55;12.73;;;;;;;3.64;71.98;101680.48;1792656;79;21238;-55
2020/12/19 06:22:11;;;;;;;33.02;12.82;;;;;;;3.60;72.04;101681.46;1789973;79;21921;-55
2020/12/19 06:24:43;;;;;;;21.27;12.60;;;;;;;3.63;72.10;101687.88;1786932;79;21211;-55
2020/12/19 06:27:29;;;;;;;27.32;13.68;;;;;;;3.66;71.98;101690.40;1789679;79;21171;-56
2020/12/19 06:29:56;;;;;;;25.60;14.40;;;;;;;3.66;71.93;101689.94;1794360;79;21176;-56
2020/12/19 06:32:28;;;;;;;26.05;13.58;;;;;;;3.72;71.79;101691.06;1790769;79;23601;-56
2020/12/19 06:35:10;;;;;;;23.27;12.65;;;;;;;3.87;71.45;101692.81;1786091;79;21207;-56
2020/12/19 06:37:41;;;;;;;26.68;13.62;;;;;;;3.97;71.22;101697.25;1791854;79;21156;-55
2020/12/19 06:40:20;;;;;;;25.20;13.13;;;;;;;4.02;71.04;101698.84;1791422;79;21207;-54
2020/12/19 06:43:12;;;;;;;21.65;12.40;;;;;;;4.02;71.08;101703.20;1785379;79;21187;-54
2020/12/19 06:45:40;;;;;;;23.47;11.30;;;;;;;4.04;71.04;101704.84;1792224;79;21365;-55
2020/12/19 06:48:30;;;;;;;22.55;11.97;;;;;;;4.02;70.81;101700.59;1788324;79;21600;-55
2020/12/19 06:51:00;;;;;;;20.92;11.70;;;;;;;3.96;70.84;101706.83;1787568;79;21547;-55
2020/12/19 06:53:29;;;;;;;22.30;12.25;;;;;;;3.86;70.89;101715.37;1781329;79;21119;-55
2020/12/19 06:55:58;;;;;;;24.67;12.50;;;;;;;3.78;71.01;101711.30;1787097;79;21168;-55
2020/12/19 06:58:35;;;;;;;22.25;12.15;;;;;;;3.78;71.08;101714.75;1792322;79;22267;-64
2020/12/19 07:01:09;;;;;;;21.12;12.88;;;;;;;3.87;70.88;101711.87;1788448;79;21219;-60
2020/12/19 07:03:43;;;;;;;22.93;12.45;;;;;;;3.95;70.77;101715.56;1767572;78;21216;-61
2020/12/19 07:06:13;;;;;;;23.00;12.98;;;;;;;4.00;70.77;101722.78;1800324;78;21206;-61
2020/12/19 07:08:45;;;;;;;20.70;11.80;;;;;;;4.02;70.77;101722.73;1798820;77;21175;-60
2020/12/19 07:11:38;;;;;;;20.25;12.65;;;;;;;3.98;70.84;101729.77;1783145;78;21381;-60
2020/12/19 07:14:15;;;;;;;23.32;12.30;;;;;;;3.91;70.93;101721.75;1802688;78;21666;-61
2020/12/19 07:16:49;;;;;;;18.80;11.48;;;;;;;3.83;71.18;101724.61;1754776;78;21295;-62
2020/12/19 07:19:28;;;;;;;23.75;12.58;;;;;;;3.75;71.36;101720.50;1799620;78;21187;-60
2020/12/19 07:21:58;;;;;;;21.73;12.10;;;;;;;3.75;71.48;101725.28;1775780;79;21184;-60
2020/12/19 07:24:26;;;;;;;19.95;11.95;;;;;;;3.82;71.39;101725.95;1773960;80;22128;-62
2020/12/19 07:26:55;;;;;;;22.77;12.43;;;;;;;3.93;71.40;101729.05;1804505;78;21172;-60
2020/12/19 07:29:23;;;;;;;17.82;11.33;;;;;;;4.00;71.21;101723.21;1795596;77;21173;-62
2020/12/19 07:31:53;;;;;;;19.52;11.12;;;;;;;4.05;71.29;101723.91;1794324;78;21635;-60
2020/12/19 07:34:22;;;;;;;19.80;11.50;;;;;;;4.07;71.11;101728.19;1795134;78;21212;-62
2020/12/19 07:36:52;;;;;;;22.07;13.50;;;;;;;4.04;71.11;101730.89;1798199;78;21286;-60
2020/12/19 07:39:21;;;;;;;21.30;11.08;;;;;;;3.98;71.24;101731.06;1796994;78;21161;-62
2020/12/19 07:42:07;;;;;;;24.35;11.33;;;;;;;3.94;71.39;101733.84;1794957;78;21216;-61
2020/12/19 07:44:36;;;;;;;26.05;12.85;;;;;;;3.91;71.34;101729.56;1805209;78;21204;-61
2020/12/19 07:47:13;;;;;;;20.82;11.45;;;;;;;3.95;71.34;101728.59;1780317;78;21203;-62
2020/12/19 07:49:46;;;;;;;19.17;11.18;;;;;;;4.05;71.24;101727.39;1804959;78;22318;-54
2020/12/19 07:52:22;;;;;;;20.08;10.88;;;;;;;4.09;71.13;101727.69;1772137;80;21240;-57
2020/12/19 07:55:03;;;;;;;23.85;12.85;;;;;;;4.04;71.25;101723.08;1783439;78;21138;-56
2020/12/19 07:57:34;;;;;;;21.80;13.68;;;;;;;4.02;71.39;101720.12;1786509;78;21819;-57
2020/12/19 08:00:03;;;;;;;28.15;12.05;;;;;;;3.99;71.58;101725.43;1782726;79;21158;-56
2020/12/19 08:02:38;;;;;;;21.73;11.48;;;;;;;3.95;71.67;101729.89;1782861;78;21230;-57
2020/12/19 08:05:06;;;;;;;22.10;11.45;;;;;;;3.93;71.77;101729.52;1786765;78;21578;-57
2020/12/19 08:07:33;;;;;;;18.17;10.80;;;;;;;3.99;71.82;101732.78;1795023;79;21139;-57
2020/12/19 08:10:06;;;;;;;19.42;10.90;;;;;;;4.12;71.49;101731.96;1780136;79;21186;-57
2020/12/19 08:12:34;;;;;;;21.05;11.65;;;;;;;4.20;71.20;101734.31;1774595;79;21568;-57
2020/12/19 08:15:12;;;;;;;21.65;10.70;;;;;;;4.25;71.12;101732.41;1785755;79;21201;-59
2020/12/19 08:17:50;;;;;;;18.98;10.75;;;;;;;4.27;71.02;101737.98;1776177;78;21179;-56
2020/12/19 08:20:20;;;;;;;26.30;12.10;;;;;;;4.30;71.12;101739.63;1787602;79;21765;-55
2020/12/19 08:22:48;;;;;;;22.87;12.30;;;;;;;4.31;71.00;101735.29;1753656;79;21859;-56
2020/12/19 08:25:15;;;;;;;18.92;11.03;;;;;;;4.30;70.90;101733.57;1774996;79;21159;-57
2020/12/19 08:27:43;;;;;;;20.68;11.95;;;;;;;4.29;70.97;101745.76;1776705;79;21225;-57
2020/12/19 08:30:30;;;;;;;21.68;11.25;;;;;;;4.30;70.96;101736.17;1778994;78;21175;-57
2020/12/19 08:33:03;;;;;;;19.77;12.60;;;;;;;4.39;70.78;101730.22;1787192;78;21833;-57
2020/12/19 08:35:39;;;;;;;19.65;11.05;;;;;;;4.47;70.67;101729.95;1799839;78;21203;-57
2020/12/19 08:38:12;;;;;;;;;;;;;;;4.53;70.54;101732.37;1804555;78;21184;-56
2020/12/19 08:40:45;;;;;;;22.07;13.15;;;;;;;4.55;70.44;101728.41;1806091;78;21189;-57
2020/12/19 08:43:14;;;;;;;19.87;12.20;;;;;;;4.51;70.45;101725.52;1789021;79;21152;-56
2020/12/19 08:45:44;;;;;;;23.12;11.03;;;;;;;4.51;70.43;101732.03;1779381;80;21155;-56
2020/12/19 08:48:24;;;;;;;22.58;13.43;;;;;;;4.44;70.31;101725.71;1771127;80;22416;-56
2020/12/19 08:50:53;;;;;;;20.15;11.25;;;;;;;4.37;70.29;101724.64;1755528;80;21674;-56
2020/12/19 08:53:26;;;;;;;18.98;11.20;;;;;;;4.41;70.35;101731.48;1770178;80;21195;-56
2020/12/19 08:55:55;;;;;;;20.12;10.53;;;;;;;4.45;70.17;101722.64;1755456;80;21175;-56
2020/12/19 08:58:31;;;;;;;24.90;10.48;;;;;;;4.45;70.20;101723.95;1757880;80;21449;-56
2020/12/19 09:01:00;;;;;;;19.67;9.80;;;;;;;4.43;70.33;101721.84;1756269;80;21453;-57
2020/12/19 09:03:34;;;;;;;21.42;12.43;;;;;;;4.41;70.41;101721.05;1759684;80;21187;-56
2020/12/19 09:06:06;;;;;;;18.92;11.60;;;;;;;4.39;70.57;101715.05;1768196;80;21908;-56
2020/12/19 09:08:39;;;;;;;18.98;10.00;;;;;;;4.39;70.47;101716.34;1756312;80;21216;-56
2020/12/19 09:11:28;;;;;;;18.23;11.40;;;;;;;4.34;70.62;101709.98;1757156;80;21191;-57
2020/12/19 09:14:11;;;;;;;23.02;12.75;;;;;;;4.35;70.61;101712.13;1760155;80;21850;-56
2020/12/19 09:16:50;;;;;;;18.80;11.22;;;;;;;4.40;70.47;101712.36;1763504;80;21176;-56
2020/12/19 09:19:18;;;;;;;22.52;10.60;;;;;;;4.41;70.47;101699.74;1762491;80;21211;-57
2020/12/19 09:21:58;;;;;;;23.47;11.33;;;;;;;4.40;70.55;101699.33;1758873;80;21115;-56
2020/12/19 09:24:26;;;;;;;21.20;13.22;;;;;;;4.41;70.70;101702.34;1756282;80;21184;-55
2020/12/19 09:26:55;;;;;;;30.70;16.42;;;;;;;4.44;70.71;101701.41;1756645;80;21143;-56
2020/12/19 09:29:22;;;;;;;20.20;12.13;;;;;;;4.48;70.69;101703.00;1755663;80;21195;-56
2020/12/19 09:31:50;;;;;;;19.02;10.50;;;;;;;4.51;70.53;101709.41;1756541;80;23620;-57
2020/12/19 09:34:17;;;;;;;15.75;10.13;;;;;;;4.55;70.37;101704.95;1757167;80;21549;-56
2020/12/19 09:36:45;;;;;;;17.02;9.33;;;;;;;4.71;70.15;101709.17;1758001;80;21163;-56
2020/12/19 09:39:12;;;;;;;15.00;9.33;;;;;;;4.83;69.92;101707.00;1756710;80;21168;-56
2020/12/19 09:41:42;;;;;;;19.32;10.55;;;;;;;4.92;69.68;101703.68;1757913;80;21499;-56
2020/12/19 09:44:09;;;;;;;17.82;10.03;;;;;;;4.94;69.73;101694.91;1758965;80;21381;-56
2020/12/19 09:46:38;;;;;;;20.10;11.10;;;;;;;4.98;69.77;101699.56;1767352;80;21139;-57
2020/12/19 09:49:05;;;;;;;21.75;10.50;;;;;;;4.99;69.62;101699.51;1762567;80;21151;-57
2020/12/19 09:51:33;;;;;;;19.65;10.72;;;;;;;4.98;69.40;101703.47;1764150;80;21128;-56
2020/12/19 09:54:00;;;;;;;17.73;11.30;;;;;;;4.95;69.47;101701.81;1760883;80;21647;-55
2020/12/19 09:56:28;;;;;;;17.25;10.35;;;;;;;4.92;69.40;101700.61;1760068;80;21971;-56
2020/12/19 09:58:55;;;;;;;19.05;9.93;;;;;;;4.89;69.46;101699.41;1760712;80;21207;-56
2020/12/19 10:01:23;;;;;;;20.90;11.22;;;;;;;4.93;69.43;101703.63;1762132;80;21498;-55
2020/12/19 10:03:52;;;;;;;21.70;10.38;;;;;;;5.02;69.10;101701.98;1754141;80;21183;-55
2020/12/19 10:06:19;;;;;;;20.82;10.82;;;;;;;5.09;69.02;101699.16;1755291;80;21179;-56
2020/12/19 10:08:46;;;;;;;16.95;9.20;;;;;;;5.14;68.97;101698.55;1766626;80;21818;-56
2020/12/19 10:11:20;;;;;;;17.30;8.28;;;;;;;5.11;68.74;101696.91;1752489;80;21227;-56
2020/12/19 10:16:48;;;;;;;15.70;9.40;;;;;;;5.06;68.83;101693.62;1868064;74;22437;-55
2020/12/19 10:19:15;;;;;;;19.87;9.53;;;;;;;5.03;68.85;101699.78;1846724;75;21638;-56
2020/12/19 10:21:43;;;;;;;15.75;9.28;;;;;;;5.03;68.74;101688.51;1829324;77;21367;-56
2020/12/19 10:24:10;;;;;;;18.82;10.15;;;;;;;5.02;68.85;101694.16;1835022;77;21161;-55
2020/12/19 10:26:38;;;;;;;16.62;9.18;;;;;;;5.02;68.86;101686.80;1844693;77;21401;-55
2020/12/19 10:29:05;;;;;;;13.40;8.18;;;;;;;5.03;68.77;101681.98;1772748;78;21596;-55
2020/12/19 10:31:33;;;;;;;14.03;7.62;;;;;;;5.13;68.70;101687.73;1810825;78;21679;-56
2020/12/19 10:34:00;;;;;;;18.40;8.38;;;;;;;5.28;68.39;101688.47;1802646;78;23370;-55
2020/12/19 10:36:28;;;;;;;14.15;7.45;;;;;;;5.40;68.27;101684.55;1812323;78;21620;-55
2020/12/19 10:38:56;;;;;;;14.75;7.17;;;;;;;5.49;67.81;101689.88;1803782;78;21148;-55
2020/12/19 10:41:23;;;;;;;17.10;8.65;;;;;;;5.50;67.49;101692.89;1803768;77;21172;-55
2020/12/19 10:43:51;;;;;;;14.65;7.53;;;;;;;5.43;67.51;101691.39;1768973;80;21111;-55
2020/12/19 10:46:23;;;;;;;14.55;8.05;;;;;;;5.37;67.78;101686.80;1808033;78;21464;-55
2020/12/19 10:48:50;;;;;;;18.92;8.88;;;;;;;5.34;67.84;101687.37;1787711;78;21183;-55
2020/12/19 10:51:29;;;;;;;14.87;7.47;;;;;;;5.28;68.01;101692.81;1792498;77;22605;-54
2020/12/19 10:53:57;;;;;;;12.82;7.35;;;;;;;5.25;68.17;101694.26;1815300;77;21208;-55
2020/12/19 10:56:24;;;;;;;13.58;7.35;;;;;;;5.18;68.28;101687.95;1778730;80;21120;-55
2020/12/19 10:58:51;;;;;;;14.35;8.20;;;;;;;5.21;68.39;101683.05;1776543;80;21524;-55
2020/12/19 11:01:19;;;;;;;15.63;8.33;;;;;;;5.31;68.17;101689.66;1784750;80;21204;-55
2020/12/19 11:03:46;;;;;;;16.02;8.93;;;;;;;5.31;68.33;101681.83;1776810;79;21139;-55
2020/12/19 11:06:24;;;;;;;16.05;9.78;;;;;;;5.31;68.33;101681.83;1779551;78;21120;-56
2020/12/19 11:08:52;;;;;;;15.75;8.63;;;;;;;5.24;68.12;101684.72;1777082;79;21186;-62
2020/12/19 11:11:22;;;;;;;11.48;7.47;;;;;;;5.09;68.45;101676.98;1776082;80;21202;-61
2020/12/19 11:13:50;;;;;;;26.42;11.73;;;;;;;5.02;68.72;101685.02;1782895;79;21601;-63
2020/12/19 11:16:25;;;;;;;20.50;10.65;;;;;;;4.95;68.90;101684.86;1765344;80;21148;-61
2020/12/19 11:18:53;;;;;;;19.15;10.45;;;;;;;4.91;69.05;101678.06;1765193;80;21171;-62
2020/12/19 11:21:20;;;;;;;19.82;11.08;;;;;;;4.89;69.28;101683.76;1761679;80;21611;-62
2020/12/19 11:23:48;;;;;;;15.23;9.25;;;;;;;4.95;69.40;101682.71;1761920;80;21385;-63
2020/12/19 11:26:20;;;;;;;22.45;11.38;;;;;;;5.01;69.26;101686.41;1762111;79;21234;-62
2020/12/19 11:28:50;;;;;;;17.95;11.03;;;;;;;4.90;69.54;101688.08;1758267;80;21159;-62
2020/12/19 11:31:26;;;;;;;22.13;11.57;;;;;;;4.90;69.54;101688.08;1760936;80;22605;-63
2020/12/19 11:33:54;;;;;;;20.97;12.82;;;;;;;4.82;69.77;101687.50;1762942;80;21148;-64
2020/12/19 11:36:23;;;;;;;25.77;13.18;;;;;;;4.79;69.93;101691.08;1760988;80;21199;-62